createdAt,value
2022-07-27T00:01:15.732Z,19.10
2022-07-27T00:03:45.396Z,25.80
2022-07-27T00:06:13.734Z,21.50
2022-07-27T00:08:41.302Z,23.23
2022-07-27T00:11:10.344Z,24.27
2022-07-27T00:13:38.924Z,20.85
2022-07-27T00:16:07.561Z,24.77
2022-07-27T00:18:35.131Z,23.75
2022-07-27T00:21:02.332Z,22.35
2022-07-27T00:23:29.634Z,26.02
2022-07-27T00:25:57.262Z,19.23
2022-07-27T00:28:24.510Z,20.33
2022-07-27T00:30:51.784Z,22.27
2022-07-27T00:33:19.249Z,22.05
2022-07-27T00:35:46.696Z,25.13
2022-07-27T00:38:14.125Z,21.80
2022-07-27T00:40:41.746Z,20.20
2022-07-27T00:43:09.033Z,24.55
2022-07-27T00:45:36.401Z,18.08
2022-07-27T00:48:04.299Z,17.42
2022-07-27T00:50:31.814Z,14.68
2022-07-27T00:52:59.638Z,19.00
2022-07-27T00:55:27.723Z,23.63
2022-07-27T00:57:59.314Z,22.90
2022-07-27T01:00:28.527Z,19.83
2022-07-27T01:02:57.496Z,19.92
2022-07-27T01:05:35.964Z,20.33
2022-07-27T01:08:07.886Z,16.73
2022-07-27T01:10:36.166Z,22.38
2022-07-27T01:13:03.708Z,22.17
2022-07-27T01:15:36.818Z,21.80
2022-07-27T01:18:04.829Z,18.98
2022-07-27T01:20:33.838Z,19.02
2022-07-27T01:23:01.077Z,19.60
2022-07-27T01:25:28.330Z,20.17
2022-07-27T01:27:55.723Z,21.27
2022-07-27T01:30:30.502Z,18.50
2022-07-27T01:33:03.561Z,15.40
2022-07-27T01:35:30.937Z,20.63
2022-07-27T01:37:58.707Z,16.85
2022-07-27T01:40:26.190Z,17.88
2022-07-27T01:42:53.567Z,20.08
2022-07-27T01:45:21.983Z,16.08
2022-07-27T01:47:49.589Z,14.73
2022-07-27T01:50:16.975Z,18.10
2022-07-27T01:52:44.506Z,15.15
2022-07-27T01:55:12.340Z,15.95
2022-07-27T01:57:40.269Z,23.65
2022-07-27T02:00:12.107Z,18.17
2022-07-27T02:02:41.295Z,16.77
2022-07-27T02:05:12.221Z,16.33
2022-07-27T02:07:41.543Z,15.20
2022-07-27T02:10:10.297Z,18.42
2022-07-27T02:12:38.734Z,17.73
2022-07-27T02:15:19.564Z,17.95
2022-07-27T02:17:49.293Z,18.10
2022-07-27T02:20:21.389Z,18.73
2022-07-27T02:22:50.073Z,17.40
2022-07-27T02:25:19.594Z,17.63
2022-07-27T02:27:47.920Z,18.63
2022-07-27T02:30:17.885Z,21.73
2022-07-27T02:32:45.458Z,19.52
2022-07-27T02:35:19.912Z,15.98
2022-07-27T02:37:49.115Z,16.73
2022-07-27T02:40:18.185Z,16.38
2022-07-27T02:42:47.331Z,25.02
2022-07-27T02:45:16.320Z,22.15
2022-07-27T02:47:44.900Z,25.17
2022-07-27T02:50:12.753Z,23.77
2022-07-27T02:52:41.161Z,24.05
2022-07-27T02:55:10.618Z,22.27
2022-07-27T02:57:41.285Z,24.05
2022-07-27T03:00:14.423Z,22.15
2022-07-27T03:02:42.030Z,23.85
2022-07-27T03:05:11.029Z,22.25
2022-07-27T03:07:38.845Z,22.40
2022-07-27T03:10:07.178Z,19.30
2022-07-27T03:12:34.874Z,19.90
2022-07-27T03:15:02.293Z,19.70
2022-07-27T03:17:29.663Z,17.77
2022-07-27T03:19:57.159Z,16.00
2022-07-27T03:22:24.472Z,20.50
2022-07-27T03:24:51.793Z,16.17
2022-07-27T03:27:19.271Z,20.48
2022-07-27T03:29:46.627Z,19.77
2022-07-27T03:32:14.032Z,24.67
2022-07-27T03:34:41.484Z,19.17
2022-07-27T03:37:08.845Z,20.70
2022-07-27T03:39:36.564Z,24.25
2022-07-27T03:42:04.583Z,16.75
2022-07-27T03:44:32.057Z,22.00
2022-07-27T03:46:59.652Z,18.80
2022-07-27T03:49:27.354Z,20.15
2022-07-27T03:51:54.686Z,24.85
2022-07-27T03:54:22.130Z,19.60
2022-07-27T03:56:49.636Z,16.63
2022-07-27T03:59:17.047Z,16.38
2022-07-27T04:01:44.466Z,13.13
2022-07-27T04:04:12.138Z,15.02
2022-07-27T04:06:39.520Z,14.20
2022-07-27T04:09:08.655Z,26.20
2022-07-27T04:11:37.840Z,20.58
2022-07-27T04:14:16.940Z,17.98
2022-07-27T04:16:44.588Z,19.45
2022-07-27T04:19:12.145Z,15.05
2022-07-27T04:21:39.719Z,18.13
2022-07-27T04:24:07.837Z,19.85
2022-07-27T04:26:35.181Z,19.73
2022-07-27T04:29:02.878Z,17.00
2022-07-27T04:31:30.900Z,22.95
2022-07-27T04:33:58.449Z,21.90
2022-07-27T04:36:25.831Z,20.95
2022-07-27T04:38:53.375Z,19.02
2022-07-27T04:41:21.196Z,19.63
2022-07-27T04:43:48.578Z,21.02
2022-07-27T04:46:16.581Z,47.75
2022-07-27T04:48:49.090Z,32.90
2022-07-27T04:51:18.472Z,27.40
2022-07-27T04:53:52.783Z,24.67
2022-07-27T04:56:27.538Z,19.73
2022-07-27T04:58:56.183Z,23.20
2022-07-27T05:01:23.856Z,26.80
2022-07-27T05:03:52.552Z,22.48
2022-07-27T05:06:20.353Z,20.75
2022-07-27T05:08:47.651Z,27.95
2022-07-27T05:11:15.495Z,25.70
2022-07-27T05:13:42.855Z,26.05
2022-07-27T05:16:11.375Z,22.80
2022-07-27T05:18:40.181Z,24.77
2022-07-27T05:21:09.755Z,46.88
2022-07-27T05:23:37.140Z,32.03
2022-07-27T05:26:05.119Z,24.00
2022-07-27T05:28:32.505Z,20.00
2022-07-27T05:30:59.977Z,20.30
2022-07-27T05:33:27.635Z,16.63
2022-07-27T05:35:57.260Z,15.30
2022-07-27T05:38:24.467Z,19.10
2022-07-27T05:40:53.336Z,21.52
2022-07-27T05:43:20.675Z,27.95
2022-07-27T05:45:48.174Z,24.90
2022-07-27T05:48:16.045Z,18.90
2022-07-27T05:50:43.896Z,18.67
2022-07-27T05:53:11.236Z,20.35
2022-07-27T05:55:38.726Z,28.55
2022-07-27T05:58:06.392Z,32.22
2022-07-27T06:00:34.398Z,31.00
2022-07-27T06:03:01.992Z,26.75
2022-07-27T06:05:29.413Z,19.38
2022-07-27T06:07:59.457Z,20.55
2022-07-27T06:10:32.525Z,20.08
2022-07-27T06:13:01.415Z,18.95
2022-07-27T06:15:28.962Z,16.90
2022-07-27T06:17:56.647Z,24.30
2022-07-27T06:20:25.446Z,26.10
2022-07-27T06:22:57.432Z,28.33
2022-07-27T06:25:34.050Z,16.58
2022-07-27T06:28:06.704Z,15.52
2022-07-27T06:30:34.144Z,14.65
2022-07-27T06:33:06.721Z,17.75
2022-07-27T06:35:37.763Z,17.15
2022-07-27T06:38:05.676Z,18.20
2022-07-27T06:40:32.940Z,18.05
2022-07-27T06:43:00.713Z,24.67
2022-07-27T06:45:28.173Z,19.25
2022-07-27T06:47:55.523Z,19.67
2022-07-27T06:50:23.691Z,17.55
2022-07-27T06:52:51.011Z,13.95
2022-07-27T06:55:18.381Z,11.27
2022-07-27T06:57:46.644Z,17.42
2022-07-27T07:00:15.327Z,14.50
2022-07-27T07:03:01.119Z,12.40
2022-07-27T07:05:29.431Z,18.55
2022-07-27T07:07:57.534Z,13.82
2022-07-27T07:10:26.224Z,14.35
2022-07-27T07:12:56.295Z,13.80
2022-07-27T07:15:26.907Z,12.55
2022-07-27T07:17:54.748Z,18.77
2022-07-27T07:20:22.957Z,18.05
2022-07-27T07:22:50.987Z,21.45
2022-07-27T07:25:18.594Z,23.67
2022-07-27T07:27:45.910Z,20.30
2022-07-27T07:30:13.554Z,17.27
2022-07-27T07:32:41.091Z,16.67
2022-07-27T07:35:09.286Z,18.67
2022-07-27T07:37:36.527Z,19.35
2022-07-27T07:40:32.565Z,17.42
2022-07-27T07:42:56.785Z,17.33
2022-07-27T07:45:25.210Z,26.52
2022-07-27T07:47:54.107Z,21.15
2022-07-27T07:50:22.414Z,20.65
2022-07-27T07:52:52.386Z,22.00
2022-07-27T07:55:21.896Z,21.02
2022-07-27T07:57:50.682Z,21.25
2022-07-27T08:00:19.638Z,21.52
2022-07-27T08:02:54.419Z,23.70
2022-07-27T08:05:22.796Z,24.30
2022-07-27T08:07:50.695Z,25.25
2022-07-27T08:10:21.811Z,23.02
2022-07-27T08:12:54.604Z,24.90
2022-07-27T08:15:34.808Z,22.15
2022-07-27T08:18:05.697Z,19.75
2022-07-27T08:20:34.341Z,18.17
2022-07-27T08:23:02.307Z,18.42
2022-07-27T08:25:30.197Z,23.77
2022-07-27T08:27:58.796Z,15.82
2022-07-27T08:30:27.223Z,14.93
2022-07-27T08:33:01.736Z,15.35
2022-07-27T08:35:31.243Z,22.92
2022-07-27T08:38:00.641Z,18.80
2022-07-27T08:40:39.605Z,14.63
2022-07-27T08:43:09.799Z,15.52
2022-07-27T08:45:38.655Z,15.95
2022-07-27T08:48:06.581Z,18.35
2022-07-27T08:50:35.441Z,16.13
2022-07-27T08:53:12.525Z,18.67
2022-07-27T08:55:44.227Z,17.45
2022-07-27T08:58:13.775Z,19.17
2022-07-27T09:00:45.930Z,21.52
2022-07-27T09:03:19.564Z,21.08
2022-07-27T09:05:56.515Z,19.00
2022-07-27T09:08:31.118Z,18.00
2022-07-27T09:11:00.462Z,15.32
2022-07-27T09:13:33.420Z,12.65
2022-07-27T09:16:23.501Z,16.63
2022-07-27T09:19:10.653Z,17.55
2022-07-27T09:21:38.531Z,19.52
2022-07-27T09:24:29.744Z,17.30
2022-07-27T09:27:05.958Z,20.17
2022-07-27T09:29:37.242Z,22.70
2022-07-27T09:32:15.828Z,16.92
2022-07-27T09:34:43.872Z,16.15
2022-07-27T09:37:12.536Z,15.20
2022-07-27T09:39:40.052Z,15.05
2022-07-27T09:43:02.774Z,16.15
2022-07-27T09:45:04.475Z,16.80
2022-07-27T09:47:34.578Z,14.75
2022-07-27T09:50:29.039Z,18.55
2022-07-27T09:53:41.740Z,13.18
2022-07-27T09:56:15.057Z,14.40
2022-07-27T09:58:50.363Z,12.32
2022-07-27T10:01:29.335Z,12.80
2022-07-27T10:04:03.219Z,10.18
2022-07-27T10:06:42.727Z,11.85
2022-07-27T10:09:22.880Z,12.70
2022-07-27T10:11:51.228Z,11.80
2022-07-27T10:14:18.542Z,14.05
2022-07-27T10:16:50.988Z,11.20
2022-07-27T10:19:47.695Z,9.80
2022-07-27T10:22:15.367Z,11.75
2022-07-27T10:24:43.765Z,8.88
2022-07-27T10:27:30.928Z,9.93
2022-07-27T10:29:59.198Z,9.82
2022-07-27T10:32:33.677Z,7.43
2022-07-27T10:35:02.126Z,21.13
2022-07-27T10:37:34.900Z,15.48
2022-07-27T10:40:26.336Z,10.23
2022-07-27T10:43:18.616Z,7.30
2022-07-27T10:46:01.413Z,7.68
2022-07-27T10:48:47.903Z,8.75
2022-07-27T10:51:17.540Z,7.82
2022-07-27T10:56:48.180Z,6.45
2022-07-27T10:59:51.241Z,9.15
2022-07-27T11:02:41.708Z,7.35
2022-07-27T11:05:32.741Z,7.25
2022-07-27T11:10:48.887Z,7.25
2022-07-27T11:13:22.175Z,8.23
2022-07-27T11:16:23.326Z,6.82
2022-07-27T11:19:05.145Z,12.13
2022-07-27T11:21:38.581Z,6.90
2022-07-27T11:24:19.682Z,13.95
2022-07-27T11:26:50.418Z,6.65
2022-07-27T11:29:22.467Z,5.78
2022-07-27T11:31:57.025Z,6.32
2022-07-27T11:34:35.066Z,5.57
2022-07-27T11:37:13.870Z,6.32
2022-07-27T11:39:59.903Z,4.45
2022-07-27T11:42:39.270Z,5.03
2022-07-27T11:45:07.851Z,4.05
2022-07-27T11:47:37.069Z,5.65
2022-07-27T11:50:08.515Z,4.35
2022-07-27T11:52:36.409Z,6.28
2022-07-27T11:55:04.154Z,13.63
2022-07-27T11:57:33.922Z,8.27
2022-07-27T12:00:02.287Z,6.70
2022-07-27T12:02:29.707Z,5.20
2022-07-27T12:05:02.556Z,4.85
2022-07-27T12:07:33.818Z,4.55
2022-07-27T12:10:09.704Z,5.72
2022-07-27T12:12:38.285Z,4.65
2022-07-27T12:18:06.799Z,4.97
2022-07-27T12:20:36.723Z,4.22
2022-07-27T12:23:07.487Z,4.95
2022-07-27T12:25:35.774Z,4.30
2022-07-27T12:28:08.556Z,4.80
2022-07-27T12:30:44.758Z,8.25
2022-07-27T12:33:38.151Z,4.55
2022-07-27T12:36:08.555Z,6.22
2022-07-27T12:38:46.062Z,7.05
2022-07-27T12:41:32.693Z,4.60
2022-07-27T12:44:15.819Z,13.63
2022-07-27T12:47:02.554Z,8.85
2022-07-27T12:49:40.862Z,11.25
2022-07-27T12:52:11.237Z,12.45
2022-07-27T12:54:39.057Z,7.30
2022-07-27T12:57:06.590Z,7.03
2022-07-27T12:59:34.050Z,6.38
2022-07-27T13:02:01.369Z,6.65
2022-07-27T13:04:28.691Z,5.60
2022-07-27T13:06:56.165Z,30.33
2022-07-27T13:09:23.509Z,10.30
2022-07-27T13:11:50.744Z,6.55
2022-07-27T13:14:18.210Z,9.95
2022-07-27T13:16:45.496Z,10.05
2022-07-27T13:19:15.594Z,7.10
2022-07-27T13:21:43.631Z,5.03
2022-07-27T13:24:11.553Z,5.57
2022-07-27T13:26:39.565Z,6.35
2022-07-27T13:29:07.280Z,6.05
2022-07-27T13:31:34.736Z,6.10
2022-07-27T13:34:02.103Z,6.95
2022-07-27T13:36:29.700Z,5.18
2022-07-27T13:38:56.953Z,5.05
2022-07-27T13:41:24.267Z,4.43
2022-07-27T13:43:51.834Z,5.25
2022-07-27T13:46:19.214Z,5.32
2022-07-27T13:48:46.710Z,11.25
2022-07-27T13:51:14.299Z,5.00
2022-07-27T13:53:41.553Z,8.10
2022-07-27T13:56:09.319Z,7.28
2022-07-27T13:58:41.039Z,5.90
2022-07-27T14:01:09.009Z,5.63
2022-07-27T14:03:36.924Z,5.00
2022-07-27T14:06:04.577Z,15.90
2022-07-27T14:08:34.037Z,7.95
2022-07-27T14:11:01.323Z,4.55
2022-07-27T14:13:32.849Z,4.95
2022-07-27T14:16:01.682Z,4.30
2022-07-27T14:18:32.396Z,7.93
2022-07-27T14:21:04.091Z,4.75
2022-07-27T14:23:33.415Z,10.95
2022-07-27T14:26:03.620Z,5.20
2022-07-27T14:28:31.873Z,4.85
2022-07-27T14:31:00.859Z,4.20
2022-07-27T14:33:33.299Z,4.40
2022-07-27T14:36:07.435Z,4.45
2022-07-27T14:38:37.099Z,5.07
2022-07-27T14:41:06.194Z,3.97
2022-07-27T14:43:33.813Z,3.72
2022-07-27T14:46:01.716Z,3.97
2022-07-27T14:48:48.927Z,5.63
2022-07-27T14:51:16.776Z,20.45
2022-07-27T14:53:44.133Z,8.25
2022-07-27T14:56:11.519Z,5.55
2022-07-27T14:58:42.215Z,5.18
2022-07-27T15:01:09.979Z,7.63
2022-07-27T15:03:37.400Z,5.20
2022-07-27T15:06:05.434Z,4.65
2022-07-27T15:08:32.926Z,4.65
2022-07-27T15:11:00.295Z,3.40
2022-07-27T15:13:27.936Z,4.25
2022-07-27T15:15:57.430Z,4.85
2022-07-27T15:18:24.894Z,7.25
2022-07-27T15:20:52.441Z,6.13
2022-07-27T15:23:19.764Z,4.53
2022-07-27T15:25:47.351Z,4.60
2022-07-27T15:28:15.599Z,5.50
2022-07-27T15:30:42.914Z,7.05
2022-07-27T15:33:10.372Z,7.35
2022-07-27T15:35:38.047Z,7.72
2022-07-27T15:38:05.499Z,5.13
2022-07-27T15:40:39.119Z,3.20
2022-07-27T15:43:13.087Z,5.15
2022-07-27T15:45:43.104Z,4.40
2022-07-27T15:48:12.745Z,4.55
2022-07-27T15:50:43.732Z,3.85
2022-07-27T15:53:12.104Z,8.60
2022-07-27T15:55:39.860Z,9.35
2022-07-27T15:58:07.775Z,6.03
2022-07-27T16:00:40.570Z,4.18
2022-07-27T16:03:10.653Z,3.05
2022-07-27T16:05:40.623Z,4.32
2022-07-27T16:08:10.025Z,2.38
2022-07-27T16:10:39.456Z,2.55
2022-07-27T16:13:08.946Z,2.92
2022-07-27T16:15:56.146Z,2.70
2022-07-27T16:18:23.771Z,3.20
2022-07-27T16:20:52.536Z,10.60
2022-07-27T16:23:22.286Z,7.82
2022-07-27T16:26:04.402Z,4.20
2022-07-27T16:28:36.002Z,3.85
2022-07-27T16:31:05.773Z,3.65
2022-07-27T16:33:44.635Z,2.53
2022-07-27T16:36:12.930Z,2.90
2022-07-27T16:38:49.715Z,4.85
2022-07-27T16:41:21.074Z,3.15
2022-07-27T16:43:49.637Z,7.97
2022-07-27T16:46:17.353Z,5.70
2022-07-27T16:48:45.620Z,5.72
2022-07-27T16:51:15.067Z,6.30
2022-07-27T16:53:46.288Z,5.13
2022-07-27T16:56:14.702Z,2.35
2022-07-27T16:58:43.504Z,3.47
2022-07-27T17:01:22.039Z,9.52
2022-07-27T17:03:57.855Z,7.57
2022-07-27T17:06:26.704Z,3.15
2022-07-27T17:08:54.325Z,4.30
2022-07-27T17:11:22.561Z,4.55
2022-07-27T17:13:58.904Z,5.35
2022-07-27T17:16:28.894Z,6.28
2022-07-27T17:18:56.909Z,4.85
2022-07-27T17:21:24.478Z,4.97
2022-07-27T17:23:52.008Z,4.90
2022-07-27T17:26:19.759Z,3.08
2022-07-27T17:28:50.162Z,4.47
2022-07-27T17:31:18.950Z,4.78
2022-07-27T17:33:46.297Z,2.50
2022-07-27T17:36:15.353Z,3.85
2022-07-27T17:38:44.934Z,4.70
2022-07-27T17:41:14.598Z,5.00
2022-07-27T17:43:42.569Z,4.70
2022-07-27T17:46:12.753Z,5.38
2022-07-27T17:48:41.238Z,3.13
2022-07-27T17:51:10.648Z,7.38
2022-07-27T17:53:39.073Z,4.43
2022-07-27T17:56:08.429Z,6.38
2022-07-27T17:58:35.947Z,3.75
2022-07-27T18:01:05.465Z,5.00
2022-07-27T18:03:34.990Z,3.33
2022-07-27T18:06:02.872Z,3.72
2022-07-27T18:08:30.369Z,3.28
2022-07-27T18:10:57.690Z,3.10
2022-07-27T18:13:39.232Z,5.28
2022-07-27T18:16:13.327Z,2.78
2022-07-27T18:18:42.307Z,3.42
2022-07-27T18:21:11.131Z,2.30
2022-07-27T18:23:38.803Z,2.65
2022-07-27T18:26:06.993Z,3.22
2022-07-27T18:28:39.318Z,2.47
2022-07-27T18:31:08.334Z,3.35
2022-07-27T18:33:37.026Z,2.83
2022-07-27T18:36:06.483Z,3.75
2022-07-27T18:38:33.836Z,7.82
2022-07-27T18:41:01.431Z,5.90
2022-07-27T18:43:28.652Z,5.38
2022-07-27T18:45:56.324Z,3.75
2022-07-27T18:48:23.763Z,8.68
2022-07-27T18:50:53.590Z,5.65
2022-07-27T18:53:21.093Z,3.40
2022-07-27T18:55:52.750Z,3.17
2022-07-27T18:58:23.065Z,4.32
2022-07-27T19:00:50.950Z,2.75
2022-07-27T19:03:19.747Z,4.38
2022-07-27T19:05:49.489Z,4.97
2022-07-27T19:08:21.792Z,5.55
2022-07-27T19:10:49.202Z,3.15
2022-07-27T19:13:16.834Z,2.42
2022-07-27T19:15:45.519Z,3.03
2022-07-27T19:18:12.976Z,3.38
2022-07-27T19:20:41.512Z,2.95
2022-07-27T19:23:09.087Z,2.92
2022-07-27T19:25:36.423Z,4.38
2022-07-27T19:28:04.738Z,3.28
2022-07-27T19:30:32.434Z,2.90
2022-07-27T19:33:00.811Z,3.90
2022-07-27T19:35:28.468Z,3.00
2022-07-27T19:37:56.189Z,4.60
2022-07-27T19:43:11.264Z,2.85
2022-07-27T19:45:38.609Z,3.15
2022-07-27T19:48:06.841Z,2.40
2022-07-27T19:50:35.022Z,2.53
2022-07-27T19:53:03.326Z,2.08
2022-07-27T19:55:30.827Z,2.08
2022-07-27T19:57:58.515Z,2.53
2022-07-27T20:00:26.001Z,3.20
2022-07-27T20:02:53.489Z,4.80
2022-07-27T20:05:21.781Z,4.40
2022-07-27T20:07:49.041Z,3.00
2022-07-27T20:10:16.706Z,2.83
2022-07-27T20:12:44.252Z,3.60
2022-07-27T20:15:11.669Z,4.43
2022-07-27T20:17:40.424Z,3.45
2022-07-27T20:20:10.838Z,3.33
2022-07-27T20:22:41.206Z,3.22
2022-07-27T20:25:14.929Z,5.50
2022-07-27T20:27:42.883Z,4.88
2022-07-27T20:30:11.816Z,7.00
2022-07-27T20:32:39.126Z,5.43
2022-07-27T20:35:07.287Z,8.32
2022-07-27T20:37:34.921Z,5.15
2022-07-27T20:40:03.178Z,5.47
2022-07-27T20:42:30.893Z,5.20
2022-07-27T20:44:58.425Z,8.02
2022-07-27T20:47:28.698Z,5.13
2022-07-27T20:49:58.656Z,5.28
2022-07-27T20:52:25.848Z,4.70
2022-07-27T20:54:55.928Z,6.22
2022-07-27T20:57:23.282Z,3.92
2022-07-27T20:59:50.514Z,6.00
2022-07-27T21:02:17.889Z,3.03
2022-07-27T21:04:45.460Z,3.53
2022-07-27T21:07:12.880Z,5.93
2022-07-27T21:09:40.284Z,5.38
2022-07-27T21:12:08.099Z,4.75
2022-07-27T21:14:35.337Z,4.88
2022-07-27T21:17:02.692Z,6.55
2022-07-27T21:19:30.287Z,15.95
2022-07-27T21:21:57.525Z,8.93
2022-07-27T21:24:26.229Z,8.55
2022-07-27T21:26:54.175Z,7.22
2022-07-27T21:29:26.087Z,5.03
2022-07-27T21:31:53.652Z,5.68
2022-07-27T21:34:21.700Z,7.80
2022-07-27T21:36:49.909Z,5.95
2022-07-27T21:39:18.212Z,5.00
2022-07-27T21:41:46.014Z,6.88
2022-07-27T21:44:13.808Z,6.40
2022-07-27T21:46:41.440Z,5.82
2022-07-27T21:49:10.449Z,10.75
2022-07-27T21:51:37.823Z,6.38
2022-07-27T21:54:05.699Z,4.35
2022-07-27T21:56:41.899Z,7.28
2022-07-27T21:59:10.505Z,5.28
2022-07-27T22:01:38.058Z,6.00
2022-07-27T22:04:06.378Z,5.45
2022-07-27T22:06:33.788Z,2.80
2022-07-27T22:09:01.256Z,3.63
2022-07-27T22:11:28.696Z,3.72
2022-07-27T22:13:56.060Z,4.03
2022-07-27T22:16:23.803Z,5.15
2022-07-27T22:18:51.330Z,4.35
2022-07-27T22:21:18.699Z,4.70
2022-07-27T22:23:49.157Z,5.90
2022-07-27T22:26:17.559Z,5.85
2022-07-27T22:28:49.930Z,4.35
2022-07-27T22:31:22.614Z,5.13
2022-07-27T22:33:51.124Z,6.05
2022-07-27T22:36:19.105Z,4.00
2022-07-27T22:38:46.507Z,3.05
2022-07-27T22:41:14.147Z,3.72
2022-07-27T22:43:41.848Z,4.28
2022-07-27T22:46:10.168Z,4.07
2022-07-27T22:48:38.090Z,2.70
2022-07-27T22:51:05.606Z,2.60
2022-07-27T22:53:32.965Z,3.50
2022-07-27T22:56:00.543Z,4.25
2022-07-27T22:58:28.203Z,7.28
2022-07-27T23:00:59.346Z,12.77
2022-07-27T23:03:27.485Z,6.45
2022-07-27T23:05:54.973Z,3.63
2022-07-27T23:08:23.152Z,4.65
2022-07-27T23:10:50.443Z,2.78
2022-07-27T23:13:23.011Z,3.97
2022-07-27T23:15:50.655Z,3.13
2022-07-27T23:18:18.341Z,14.35
2022-07-27T23:20:45.874Z,11.30
2022-07-27T23:23:16.302Z,9.02
2022-07-27T23:25:47.719Z,11.50
2022-07-27T23:28:16.230Z,8.10
2022-07-27T23:30:44.158Z,6.13
2022-07-27T23:33:11.445Z,5.40
2022-07-27T23:35:39.010Z,5.30
2022-07-27T23:38:06.645Z,5.57
2022-07-27T23:40:34.111Z,4.40
2022-07-27T23:43:02.436Z,6.30
2022-07-27T23:45:29.659Z,14.55
2022-07-27T23:47:56.925Z,14.10
2022-07-27T23:50:24.426Z,9.38
2022-07-27T23:52:52.132Z,11.40
2022-07-27T23:55:19.378Z,10.50
2022-07-27T23:57:47.218Z,9.63
